Time;durP1;ratioP1;P1;durP2;ratioP2;P2;SDS_P1;SDS_P2;PMS_P1;PMS_P2;Temp;Humidity;BMP_temperature;BMP_pressure;BME280_temperature;BME280_humidity;BME280_pressure;Samples;Min_cycle;Max_cycle;Signal;HPM_P1;HPM_P2
2022/08/01 00:00:16;;;;;;;5.20;4.60;;;;;;;16.43;93.05;96974.54;110228;1246;69285;-71
2022/08/01 00:03:04;;;;;;;6.20;5.00;;;;;;;16.44;94.19;96976.02;110040;1246;68724;-71
2022/08/01 00:05:34;;;;;;;6.80;6.10;;;;;;;16.44;95.31;96977.50;110107;1247;58907;-73
2022/08/01 00:08:05;;;;;;;7.00;6.30;;;;;;;16.42;96.13;96976.65;110041;1247;58862;-76
2022/08/01 00:10:35;;;;;;;4.90;4.40;;;;;;;16.38;94.61;96978.67;110132;1247;69953;-73
2022/08/01 00:13:06;;;;;;;6.40;5.80;;;;;;;16.35;94.54;96978.20;110175;1247;69389;-71
2022/08/01 00:15:39;;;;;;;6.20;5.60;;;;;;;16.32;95.20;96979.73;110099;1247;68648;-72
2022/08/01 00:18:21;;;;;;;6.10;5.50;;;;;;;16.29;95.10;96980.05;110125;1247;58959;-72
2022/08/01 00:20:52;;;;;;;6.70;6.00;;;;;;;16.29;96.32;96978.96;110122;1247;58878;-72
2022/08/01 00:23:22;;;;;;;5.50;4.80;;;;;;;16.29;96.40;96981.95;110101;1247;70849;-71
2022/08/01 00:25:52;;;;;;;6.10;4.40;;;;;;;16.28;95.92;96978.40;110199;1247;69314;-71
2022/08/01 00:28:23;;;;;;;6.80;5.20;;;;;;;16.28;96.08;96981.56;110134;1247;68440;-71
2022/08/01 00:30:53;;;;;;;6.20;5.60;;;;;;;16.26;96.83;96982.23;110090;1247;58887;-72
2022/08/01 00:33:23;;;;;;;5.80;5.30;;;;;;;16.25;96.76;96981.34;110078;1247;58907;-72
2022/08/01 00:35:54;;;;;;;5.40;4.70;;;;;;;16.24;97.31;96976.46;110064;1246;69974;-71
2022/08/01 00:38:24;;;;;;;6.40;5.30;;;;;;;16.24;97.96;96976.50;110142;1247;69224;-72
2022/08/01 00:40:57;;;;;;;6.40;5.00;;;;;;;16.22;97.81;96977.91;110078;1247;69530;-72
2022/08/01 00:43:27;;;;;;;7.10;5.90;;;;;;;16.19;97.70;96974.06;110087;1247;58885;-72
2022/08/01 00:45:58;;;;;;;7.40;6.60;;;;;;;16.17;97.55;96972.51;110135;1247;58845;-71
2022/08/01 00:48:27;;;;;;;6.70;5.90;;;;;;;16.13;97.87;96970.23;110134;1247;70671;-70
2022/08/01 00:50:58;;;;;;;7.20;5.80;;;;;;;16.10;98.88;96968.48;110071;1247;68617;-70
2022/08/01 00:53:28;;;;;;;6.70;6.00;;;;;;;16.09;99.12;96966.96;110102;1247;69311;-71
2022/08/01 00:56:20;;;;;;;6.90;5.60;;;;;;;16.09;99.51;96963.83;110124;1247;58921;-71
2022/08/01 00:58:51;;;;;;;6.40;5.30;;;;;;;16.10;99.21;96961.80;110097;1247;59268;-71
2022/08/01 01:01:22;;;;;;;6.60;5.40;;;;;;;16.11;99.26;96964.49;110148;1247;70830;-71
2022/08/01 01:04:08;;;;;;;6.20;5.60;;;;;;;16.13;99.19;96964.88;110105;1247;69371;-71
2022/08/01 01:06:56;;;;;;;6.40;5.80;;;;;;;16.13;99.54;96962.39;110074;1247;69625;-71
2022/08/01 01:09:34;;;;;;;7.20;6.30;;;;;;;16.12;99.68;96959.46;110100;1247;58884;-71
2022/08/01 01:12:16;;;;;;;7.10;6.40;;;;;;;16.10;99.58;96959.98;110080;1248;59241;-73
2022/08/01 01:15:18;;;;;;;7.00;6.10;;;;;;;16.08;98.84;96960.05;110099;1247;69882;-72
2022/08/01 01:17:57;;;;;;;7.10;5.60;;;;;;;16.08;99.04;96963.98;109644;1247;511429;-73
2022/08/01 01:20:32;;;;;;;7.70;6.90;;;;;;;16.08;99.57;96963.73;110442;1246;69462;-71
2022/08/01 01:23:01;;;;;;;7.00;6.30;;;;;;;16.09;100.00;96966.48;110225;1247;58872;-71
2022/08/01 01:25:37;;;;;;;8.20;6.70;;;;;;;16.09;100.00;96975.39;110185;1247;58910;-71
2022/08/01 01:28:23;;;;;;;7.80;7.10;;;;;;;16.08;100.00;96973.21;110215;1247;70196;-72
2022/08/01 01:30:57;;;;;;;6.40;5.80;;;;;;;16.08;99.93;96975.15;110286;1247;68642;-71
2022/08/01 01:33:33;;;;;;;6.80;5.90;;;;;;;16.10;99.75;96972.93;110181;1247;69361;-71
2022/08/01 01:36:16;;;;;;;7.50;6.80;;;;;;;16.11;99.27;96972.58;110116;1247;58932;-72
2022/08/01 01:38:53;;;;;;;7.10;5.80;;;;;;;16.12;99.29;96973.76;110226;1247;58864;-72
2022/08/01 01:41:31;;;;;;;9.10;6.60;;;;;;;16.13;97.66;96971.52;110431;1247;70160;-72
2022/08/01 01:44:05;;;;;;;7.00;5.90;;;;;;;16.13;97.60;96972.16;110314;1247;68422;-72
2022/08/01 01:46:37;;;;;;;6.60;5.90;;;;;;;16.14;97.29;96973.02;110165;1247;68619;-72
2022/08/01 01:49:12;;;;;;;6.20;5.60;;;;;;;16.13;96.72;96969.04;110268;1247;58856;-72
2022/08/01 01:51:47;;;;;;;4.90;4.40;;;;;;;16.10;98.11;96969.73;110225;1247;58878;-73
2022/08/01 01:54:42;;;;;;;5.10;4.60;;;;;;;16.07;97.29;96968.26;110157;1247;70743;-71
2022/08/01 01:57:17;;;;;;;4.80;3.50;;;;;;;16.05;96.99;96967.07;110208;1247;69313;-73
2022/08/01 01:59:47;;;;;;;5.00;4.10;;;;;;;16.02;96.27;96963.66;110140;1247;69451;-71
2022/08/01 02:02:18;;;;;;;4.70;4.20;;;;;;;15.97;97.14;96963.45;110272;1247;58882;-72
2022/08/01 02:04:52;;;;;;;4.80;3.90;;;;;;;15.93;97.51;96965.87;110244;1247;59345;-73
2022/08/01 02:07:25;;;;;;;4.40;3.90;;;;;;;15.90;98.28;96962.30;110118;1247;69892;-72
2022/08/01 02:10:00;;;;;;;4.80;4.10;;;;;;;15.88;98.57;96960.34;110209;1247;68973;-73
2022/08/01 02:12:36;;;;;;;3.10;2.80;;;;;;;15.87;99.13;96962.75;109991;1247;69939;-73
2022/08/01 02:15:10;;;;;;;5.00;4.00;;;;;;;15.85;99.22;96961.92;110114;1247;58925;-73
2022/08/01 02:17:47;;;;;;;4.10;3.40;;;;;;;15.80;99.80;96966.02;110209;1247;58883;-73
2022/08/01 02:20:20;;;;;;;3.30;2.50;;;;;;;15.78;98.88;96960.28;110063;1249;69993;-72
2022/08/01 02:22:59;;;;;;;2.80;2.00;;;;;;;15.72;96.85;96962.64;110190;1247;68915;-71
2022/08/01 02:25:36;;;;;;;2.20;2.00;;;;;;;15.70;95.61;96967.23;110156;1247;69413;-73
2022/08/01 02:28:28;;;;;;;3.60;2.70;;;;;;;15.67;95.20;96965.14;110447;1247;58923;-71
2022/08/01 02:31:05;;;;;;;4.20;2.90;;;;;;;15.63;97.65;96960.89;110221;1247;58905;-70
2022/08/01 02:33:48;;;;;;;5.50;3.60;;;;;;;15.61;98.38;96961.31;110254;1247;70522;-70
2022/08/01 02:36:21;;;;;;;4.20;3.80;;;;;;;15.58;98.56;96961.02;110159;1247;69517;-71
2022/08/01 02:39:08;;;;;;;4.70;3.60;;;;;;;15.57;99.67;96962.56;110124;1247;68719;-71
2022/08/01 02:41:43;;;;;;;5.40;4.20;;;;;;;15.57;100.00;96961.66;110171;1247;58888;-70
2022/08/01 02:44:25;;;;;;;4.70;4.30;;;;;;;15.58;100.00;96960.77;110169;1247;58974;-71
2022/08/01 02:47:04;;;;;;;5.30;4.00;;;;;;;15.59;100.00;96959.53;110037;1247;70027;-71
2022/08/01 02:49:39;;;;;;;4.20;3.70;;;;;;;15.59;100.00;96957.66;110185;1247;69373;-73
2022/08/01 02:52:13;;;;;;;3.10;2.80;;;;;;;15.57;100.00;96959.05;110170;1247;68724;-70
2022/08/01 02:54:47;;;;;;;3.40;2.90;;;;;;;15.58;99.80;96961.41;110080;1248;58893;-73
2022/08/01 02:57:20;;;;;;;2.90;2.50;;;;;;;15.59;99.02;96961.70;110110;1247;58871;-73
2022/08/01 02:59:59;;;;;;;4.40;3.30;;;;;;;15.59;98.76;96964.48;110217;1247;70844;-71
2022/08/01 03:02:31;;;;;;;2.70;2.50;;;;;;;15.58;99.01;96965.46;110207;1247;69393;-71
2022/08/01 03:05:03;;;;;;;3.90;3.50;;;;;;;15.56;99.78;96964.41;110202;1247;69396;-73
2022/08/01 03:07:39;;;;;;;4.10;3.50;;;;;;;15.54;100.00;96965.45;110190;1247;58894;-73
2022/08/01 03:10:11;;;;;;;3.40;3.00;;;;;;;15.54;100.00;96963.02;109944;1250;58896;-73
2022/08/01 03:12:47;;;;;;;3.60;3.30;;;;;;;15.54;99.94;96960.39;110184;1247;69956;-71
2022/08/01 03:15:22;;;;;;;4.10;3.20;;;;;;;15.54;99.95;96958.09;110146;1247;69492;-72
2022/08/01 03:17:54;;;;;;;4.20;3.00;;;;;;;15.56;99.86;96958.48;110200;1247;69385;-71
2022/08/01 03:20:27;;;;;;;3.90;3.50;;;;;;;15.58;100.00;96956.83;110202;1247;58951;-70
2022/08/01 03:23:03;;;;;;;4.60;4.20;;;;;;;15.60;100.00;96960.52;110385;1247;58956;-73
2022/08/01 03:25:37;;;;;;;4.70;4.20;;;;;;;15.62;100.00;96958.73;110173;1246;70715;-71
2022/08/01 03:28:14;;;;;;;4.00;3.60;;;;;;;15.64;100.00;96958.05;110188;1247;68416;-72
2022/08/01 03:30:45;;;;;;;4.50;4.10;;;;;;;15.64;100.00;96958.67;110295;1247;69393;-72
2022/08/01 03:33:15;;;;;;;5.40;4.80;;;;;;;15.67;100.00;96961.40;110296;1247;58953;-71
2022/08/01 03:35:54;;;;;;;5.10;3.80;;;;;;;15.69;100.00;96965.79;110611;1246;58885;-73
2022/08/01 03:38:27;;;;;;;4.80;3.30;;;;;;;15.72;100.00;96969.90;110297;1247;70550;-73
2022/08/01 03:41:08;;;;;;;4.00;3.60;;;;;;;15.71;100.00;96974.83;110251;1247;68851;-71
2022/08/01 03:43:46;;;;;;;3.40;3.10;;;;;;;15.72;100.00;96976.86;110171;1247;68657;-71
2022/08/01 03:46:42;;;;;;;3.20;2.90;;;;;;;15.73;100.00;96980.68;110286;1247;58957;-71
2022/08/01 03:49:18;;;;;;;3.50;3.20;;;;;;;15.74;100.00;96981.41;110154;1247;58880;-71
2022/08/01 03:51:51;;;;;;;4.10;3.70;;;;;;;15.74;100.00;96981.20;110144;1248;70810;-72
2022/08/01 03:54:24;;;;;;;4.00;3.60;;;;;;;15.73;100.00;96981.48;110145;1247;69383;-73
2022/08/01 03:56:55;;;;;;;4.20;3.60;;;;;;;15.75;100.00;96982.70;110041;1247;69387;-72
2022/08/01 03:59:27;;;;;;;4.00;3.70;;;;;;;15.76;99.99;96984.91;110039;1247;58956;-70
2022/08/01 04:01:59;;;;;;;3.40;3.10;;;;;;;15.76;99.73;96987.02;110093;1247;58951;-70
2022/08/01 04:04:31;;;;;;;3.60;2.60;;;;;;;15.77;98.94;96983.73;110319;1247;70735;-71
2022/08/01 04:07:06;;;;;;;3.30;2.60;;;;;;;15.79;97.68;96988.09;110206;1247;69209;-71
2022/08/01 04:09:37;;;;;;;3.00;2.70;;;;;;;15.81;96.67;96984.58;110106;1247;69433;-71
2022/08/01 04:12:09;;;;;;;4.10;3.40;;;;;;;15.83;95.56;96987.59;110210;1247;58897;-72
2022/08/01 04:14:40;;;;;;;3.50;3.20;;;;;;;15.84;95.64;96985.02;110061;1248;58896;-71
2022/08/01 04:17:10;;;;;;;3.90;3.50;;;;;;;15.86;96.25;96983.58;110137;1247;70719;-73
2022/08/01 04:19:41;;;;;;;4.10;3.10;;;;;;;15.89;96.44;96986.48;109997;1247;69386;-71
2022/08/01 04:22:15;;;;;;;3.00;2.70;;;;;;;15.91;95.70;96983.20;110236;1247;68617;-73
2022/08/01 04:24:49;;;;;;;4.00;3.60;;;;;;;15.96;95.38;96981.67;110274;1247;58874;-72
2022/08/01 04:27:53;;;;;;;3.80;3.10;;;;;;;16.01;94.60;96980.61;110085;1249;58951;-72
2022/08/01 04:30:31;;;;;;;4.10;3.70;;;;;;;16.08;94.71;96978.72;109896;1247;70972;-71
2022/08/01 04:33:06;;;;;;;3.50;3.10;;;;;;;16.16;96.04;96980.54;110194;1247;67585;-72
2022/08/01 04:35:40;;;;;;;3.80;3.50;;;;;;;16.25;98.07;96982.20;110184;1246;68584;-73
2022/08/01 04:38:33;;;;;;;3.80;3.40;;;;;;;16.34;98.27;96987.79;110191;1246;58890;-71
2022/08/01 04:41:06;;;;;;;4.30;3.90;;;;;;;16.43;97.57;96992.34;110316;1248;58950;-72
2022/08/01 04:43:38;;;;;;;5.60;4.00;;;;;;;16.47;96.81;96991.88;110195;1247;70011;-73
2022/08/01 04:46:09;;;;;;;4.10;3.70;;;;;;;16.49;96.10;96989.73;110221;1247;69757;-72
2022/08/01 04:48:39;;;;;;;4.20;3.80;;;;;;;16.52;95.47;96991.33;110397;1247;69048;-72
2022/08/01 04:51:17;;;;;;;3.30;3.00;;;;;;;16.52;94.89;96991.70;110375;1247;58982;-73
2022/08/01 04:53:48;;;;;;;4.90;4.40;;;;;;;16.55;94.37;96990.69;110269;1247;58834;-71
2022/08/01 04:56:20;;;;;;;3.30;3.00;;;;;;;16.57;93.05;96989.80;110401;1247;69772;-74
2022/08/01 04:59:39;;;;;;;3.10;2.80;;;;;;;16.60;91.53;96991.30;110310;1247;69151;-73
2022/08/01 05:01:50;;;;;;;3.60;3.30;;;;;;;16.60;91.85;96988.79;110259;1248;69471;-72
2022/08/01 05:04:20;;;;;;;4.10;3.70;;;;;;;16.61;92.74;96990.27;110204;1247;58934;-73
2022/08/01 05:06:51;;;;;;;4.20;3.80;;;;;;;16.59;93.45;96988.38;110324;1247;58899;-74
2022/08/01 05:09:22;;;;;;;3.90;3.30;;;;;;;16.57;93.34;96992.06;109875;1248;70701;-73
2022/08/01 05:12:01;;;;;;;4.10;3.70;;;;;;;16.50;92.77;96993.65;110193;1247;68625;-72
2022/08/01 05:14:33;;;;;;;3.20;2.90;;;;;;;16.50;93.04;96997.10;110244;1247;69094;-72
2022/08/01 05:17:06;;;;;;;4.00;3.60;;;;;;;16.54;93.33;96998.23;110254;1247;58952;-72
2022/08/01 05:19:37;;;;;;;3.60;3.20;;;;;;;16.52;94.95;97004.61;110200;1247;58847;-73
2022/08/01 05:22:09;;;;;;;5.40;4.20;;;;;;;16.42;95.77;97003.35;110311;1247;69767;-69
2022/08/01 05:24:40;;;;;;;5.30;4.10;;;;;;;16.36;93.64;97003.46;110136;1248;69256;-73
2022/08/01 05:27:10;;;;;;;5.70;4.70;;;;;;;16.21;92.98;97008.09;110177;1247;68450;-72
2022/08/01 05:29:44;;;;;;;7.00;5.20;;;;;;;16.10;93.35;97013.43;110296;1247;58933;-67
2022/08/01 05:32:13;;;;;;;5.80;5.20;;;;;;;15.94;94.40;97018.30;110360;1247;58805;-67
2022/08/01 05:34:43;;;;;;;7.00;6.10;;;;;;;15.89;94.35;97015.30;110129;1247;69730;-70
2022/08/01 05:37:15;;;;;;;7.00;5.60;;;;;;;15.76;96.07;97018.64;110225;1246;68632;-67
2022/08/01 05:39:45;;;;;;;5.60;4.90;;;;;;;15.66;97.10;97019.42;110171;1247;68564;-70
2022/08/01 05:42:14;;;;;;;6.40;5.70;;;;;;;15.64;96.70;97015.97;110335;1247;58850;-69
2022/08/01 05:44:43;;;;;;;6.30;5.20;;;;;;;15.59;97.58;97019.08;110336;1247;58883;-71
2022/08/01 05:47:12;;;;;;;5.70;5.10;;;;;;;15.52;98.50;97019.22;110299;1247;70544;-69
2022/08/01 05:49:42;;;;;;;5.40;4.00;;;;;;;15.46;99.32;97017.73;110286;1247;68631;-70
2022/08/01 05:52:11;;;;;;;6.70;5.50;;;;;;;15.54;99.01;97019.26;110280;1247;68860;-68
2022/08/01 05:54:40;;;;;;;4.70;3.80;;;;;;;15.60;98.44;97023.05;110191;1247;58932;-67
2022/08/01 05:57:09;;;;;;;4.20;3.40;;;;;;;15.59;99.01;97023.15;110260;1247;58945;-66
2022/08/01 05:59:39;;;;;;;4.30;3.60;;;;;;;15.63;99.22;97023.98;110306;1247;70823;-68
2022/08/01 06:02:09;;;;;;;4.20;3.70;;;;;;;15.67;98.42;97025.33;110282;1247;68786;-67
2022/08/01 06:04:38;;;;;;;3.20;2.60;;;;;;;15.73;99.15;97022.33;110267;1247;69273;-70
2022/08/01 06:07:07;;;;;;;3.80;2.70;;;;;;;15.76;98.41;97024.23;110200;1247;58799;-70
2022/08/01 06:09:36;;;;;;;2.60;2.00;;;;;;;15.80;96.81;97027.52;110428;1247;58885;-69
2022/08/01 06:12:05;;;;;;;1.80;1.60;;;;;;;15.93;97.12;97026.30;110171;1247;71193;-67
2022/08/01 06:14:34;;;;;;;2.50;2.00;;;;;;;16.07;96.22;97024.84;110192;1247;70361;-68
2022/08/01 06:17:03;;;;;;;2.40;2.00;;;;;;;16.16;95.48;97024.25;110142;1247;69540;-69
2022/08/01 06:19:32;;;;;;;3.00;2.20;;;;;;;16.22;94.82;97020.99;110128;1247;58909;-67
2022/08/01 06:22:00;;;;;;;3.20;2.60;;;;;;;16.25;94.84;97024.40;110380;1247;58887;-70
2022/08/01 06:24:29;;;;;;;3.60;2.20;;;;;;;16.36;93.88;97025.25;110200;1247;70570;-68
2022/08/01 06:26:58;;;;;;;3.60;2.80;;;;;;;16.40;93.63;97026.60;110185;1247;69344;-70
2022/08/01 06:29:29;;;;;;;3.60;2.60;;;;;;;16.41;93.99;97023.48;110260;1247;69879;-68
2022/08/01 06:31:58;;;;;;;3.60;3.10;;;;;;;16.49;94.90;97022.64;110367;1247;58907;-67
2022/08/01 06:34:27;;;;;;;4.40;4.00;;;;;;;16.61;92.77;97026.39;110333;1247;58947;-69
2022/08/01 06:36:56;;;;;;;3.70;2.90;;;;;;;16.51;93.36;97024.23;110278;1247;71040;-68
2022/08/01 06:39:25;;;;;;;4.00;2.50;;;;;;;16.55;94.62;97020.49;110253;1247;69986;-67
2022/08/01 06:41:54;;;;;;;3.50;3.20;;;;;;;16.56;92.94;97018.13;110182;1247;67531;-68
2022/08/01 06:44:22;;;;;;;4.00;3.50;;;;;;;16.47;93.23;97023.72;110207;1247;58939;-68
2022/08/01 06:46:51;;;;;;;4.10;3.10;;;;;;;16.41;93.25;97021.02;110032;1247;58867;-69
2022/08/01 06:49:20;;;;;;;3.50;3.10;;;;;;;16.41;94.86;97020.85;110239;1247;69842;-69
2022/08/01 06:51:49;;;;;;;3.50;3.20;;;;;;;16.43;95.39;97020.67;110353;1247;69841;-69
2022/08/01 06:54:18;;;;;;;2.90;2.60;;;;;;;16.43;93.50;97016.62;110249;1247;69266;-68
2022/08/01 06:56:47;;;;;;;2.80;2.50;;;;;;;16.53;93.42;97019.09;110248;1247;58929;-68
2022/08/01 06:59:16;;;;;;;4.20;2.80;;;;;;;16.64;93.28;97017.64;110235;1247;58874;-69
2022/08/01 07:01:45;;;;;;;3.70;3.30;;;;;;;16.71;92.12;97017.01;110188;1247;70045;-68
2022/08/01 07:04:13;;;;;;;3.80;3.10;;;;;;;16.56;91.96;97022.16;110233;1246;69714;-68
2022/08/01 07:06:42;;;;;;;4.60;2.90;;;;;;;16.46;91.71;97019.33;110145;1247;68596;-68
2022/08/01 07:09:11;;;;;;;3.20;2.90;;;;;;;16.32;92.50;97021.77;110230;1247;58893;-68
2022/08/01 07:11:42;;;;;;;3.60;3.30;;;;;;;16.43;93.18;97022.02;110210;1247;58876;-69
2022/08/01 07:14:11;;;;;;;3.80;3.40;;;;;;;16.49;94.79;97021.26;110260;1247;71169;-68
2022/08/01 07:16:40;;;;;;;4.40;2.90;;;;;;;16.58;94.65;97025.82;110086;1247;68637;-69
2022/08/01 07:19:09;;;;;;;4.50;4.00;;;;;;;16.70;94.68;97022.98;110131;1247;69063;-68
2022/08/01 07:21:39;;;;;;;4.20;3.50;;;;;;;16.74;93.05;97023.73;110241;1247;59082;-68
2022/08/01 07:24:12;;;;;;;4.70;4.10;;;;;;;16.88;92.39;97024.28;110221;1247;58891;-70
2022/08/01 07:26:44;;;;;;;4.60;3.60;;;;;;;17.09;91.99;97025.27;110269;1247;71157;-68
2022/08/01 07:29:23;;;;;;;4.60;3.80;;;;;;;17.36;89.65;97029.37;110034;1247;69383;-69
2022/08/01 07:31:54;;;;;;;4.40;4.00;;;;;;;17.62;88.41;97023.98;110114;1247;68456;-67
2022/08/01 07:34:24;;;;;;;3.80;3.50;;;;;;;17.81;87.35;97026.55;110066;1247;58846;-68
2022/08/01 07:36:53;;;;;;;3.90;3.50;;;;;;;17.95;88.69;97022.70;110079;1248;58967;-69
2022/08/01 07:39:22;;;;;;;4.40;3.40;;;;;;;18.17;87.33;97021.02;110126;1247;70194;-69
2022/08/01 07:41:51;;;;;;;4.70;3.60;;;;;;;18.23;86.23;97018.92;110030;1250;69268;-69
2022/08/01 07:44:36;;;;;;;4.10;3.70;;;;;;;18.43;84.26;97022.35;110235;1247;69891;-70
2022/08/01 07:47:05;;;;;;;4.10;3.50;;;;;;;19.07;82.84;97023.82;110110;1246;58912;-69
2022/08/01 07:49:35;;;;;;;3.40;3.10;;;;;;;19.89;81.16;97027.13;110119;1247;59240;-70
2022/08/01 07:52:08;;;;;;;4.20;3.60;;;;;;;20.64;79.18;97024.11;110337;1247;70867;-71
2022/08/01 07:54:37;;;;;;;;;;;;;;;21.00;75.44;97019.83;110239;1247;68599;-70
2022/08/01 07:57:09;;;;;;;3.00;2.70;;;;;;;21.03;73.00;97021.70;110457;1247;69387;-68
2022/08/01 07:59:42;;;;;;;3.60;3.20;;;;;;;21.32;74.59;97024.78;110768;1247;58893;-69
2022/08/01 08:02:13;;;;;;;2.60;2.40;;;;;;;21.34;72.74;97025.05;110611;1246;58948;-70
2022/08/01 08:04:43;;;;;;;1.90;1.60;;;;;;;21.48;73.38;97029.71;110400;1247;70658;-71
2022/08/01 08:07:18;;;;;;;3.20;2.20;;;;;;;21.59;72.24;97028.23;110473;1248;69450;-70
2022/08/01 08:09:48;;;;;;;2.10;1.80;;;;;;;21.55;71.17;97030.73;110087;1248;68697;-72
2022/08/01 08:12:19;;;;;;;3.20;2.90;;;;;;;21.48;70.07;97029.31;109899;1250;58939;-69
2022/08/01 08:15:07;;;;;;;2.60;2.40;;;;;;;21.48;71.03;97031.46;109810;1248;58891;-70
2022/08/01 08:17:48;;;;;;;3.20;2.20;;;;;;;21.32;71.15;97033.12;109903;1250;71502;-70
2022/08/01 08:20:34;;;;;;;2.50;1.90;;;;;;;21.22;69.55;97035.92;110095;1250;68872;-70
2022/08/01 08:26:13;;;;;;;4.50;2.50;;;;;;;20.58;71.21;97044.90;109912;1247;58940;-71
2022/08/01 08:28:42;;;;;;;2.90;2.50;;;;;;;20.01;72.41;97053.17;110231;1247;58827;-70
2022/08/01 08:31:11;;;;;;;;;;;;;;;19.32;74.12;97044.52;110270;1247;70584;-72
2022/08/01 08:33:57;;;;;;;3.40;2.50;;;;;;;18.94;77.13;97047.06;110215;1247;69390;-70
2022/08/01 08:36:31;;;;;;;3.40;2.70;;;;;;;18.73;78.47;97054.52;110301;1247;69537;-70
2022/08/01 08:39:07;;;;;;;3.30;3.00;;;;;;;18.69;79.04;97056.36;109893;1250;59014;-70
2022/08/01 08:41:38;;;;;;;4.10;2.90;;;;;;;18.30;80.93;97062.75;110114;1248;58880;-70
2022/08/01 08:44:17;;;;;;;3.70;3.40;;;;;;;18.20;81.11;97061.05;109820;1249;70785;-72
2022/08/01 08:47:01;;;;;;;3.00;2.70;;;;;;;18.61;80.40;97062.27;109987;1250;67753;-72
2022/08/01 08:49:44;;;;;;;3.30;2.80;;;;;;;18.90;80.58;97064.69;109992;1249;69454;-71
2022/08/01 08:52:22;;;;;;;2.20;2.00;;;;;;;19.23;79.60;97062.02;110109;1247;58917;-70
2022/08/01 08:54:57;;;;;;;2.70;2.10;;;;;;;19.50;77.37;97064.21;110147;1248;58888;-70
2022/08/01 08:57:28;;;;;;;3.50;2.30;;;;;;;19.47;76.32;97065.98;110113;1247;70648;-71
2022/08/01 09:00:11;;;;;;;2.80;2.00;;;;;;;18.89;77.94;97070.02;110147;1248;69689;-69
2022/08/01 09:02:55;;;;;;;2.50;2.10;;;;;;;18.68;79.36;97067.27;110060;1247;69273;-71
2022/08/01 09:05:30;;;;;;;1.90;1.70;;;;;;;18.95;76.65;97068.14;109761;1250;58965;-70
2022/08/01 09:08:08;;;;;;;2.40;2.00;;;;;;;19.14;77.10;97064.76;109940;1251;58955;-70
2022/08/01 09:10:48;;;;;;;2.70;2.40;;;;;;;19.05;77.09;97068.10;110158;1248;69973;-71
2022/08/01 09:13:36;;;;;;;2.20;1.80;;;;;;;18.86;78.37;97074.93;109758;1251;69649;-70
2022/08/01 09:16:19;;;;;;;2.00;1.60;;;;;;;18.99;79.15;97075.48;109673;1251;69287;-71
2022/08/01 09:19:16;;;;;;;1.70;1.60;;;;;;;19.10;78.28;97074.54;109790;1250;59159;-73
2022/08/01 09:22:13;;;;;;;1.20;1.10;;;;;;;19.20;78.03;97073.83;109821;1250;58962;-72
2022/08/01 09:24:59;;;;;;;2.40;1.90;;;;;;;19.32;77.04;97070.77;109946;1250;70963;-70
2022/08/01 09:27:39;;;;;;;2.00;1.60;;;;;;;19.45;76.29;97071.99;109906;1250;68584;-71
2022/08/01 09:30:22;;;;;;;2.10;1.50;;;;;;;19.63;76.01;97076.68;109755;1250;69089;-71
2022/08/01 09:33:02;;;;;;;2.30;2.10;;;;;;;19.85;74.91;97073.14;109937;1250;58918;-72
2022/08/01 09:35:54;;;;;;;1.40;1.30;;;;;;;20.04;73.66;97075.30;109853;1251;58951;-71
2022/08/01 09:38:28;;;;;;;1.40;1.30;;;;;;;20.26;73.61;97073.07;110179;1250;70787;-71
2022/08/01 09:41:07;;;;;;;1.70;1.60;;;;;;;20.29;72.15;97070.06;109877;1250;67887;-71
2022/08/01 09:43:38;;;;;;;2.10;1.70;;;;;;;20.56;72.75;97070.82;110055;1250;69247;-71
2022/08/01 09:46:11;;;;;;;1.90;1.60;;;;;;;20.80;71.91;97059.80;109976;1250;58965;-71
2022/08/01 09:49:01;;;;;;;1.90;1.40;;;;;;;20.94;70.10;97062.96;109955;1248;58905;-72
2022/08/01 09:51:39;;;;;;;1.80;1.70;;;;;;;20.98;70.15;97066.08;109915;1250;69996;-72
2022/08/01 09:54:32;;;;;;;1.70;1.50;;;;;;;20.68;70.70;97070.26;110037;1250;68597;-71
2022/08/01 09:57:12;;;;;;;2.70;2.00;;;;;;;20.61;70.87;97070.23;109940;1250;69390;-71
2022/08/01 09:59:49;;;;;;;2.00;1.80;;;;;;;20.42;71.79;97070.37;109688;1251;58897;-71
2022/08/01 10:02:40;;;;;;;2.00;1.60;;;;;;;20.30;71.69;97067.39;109751;1250;58879;-71
2022/08/01 10:05:11;;;;;;;2.10;1.90;;;;;;;20.32;72.36;97068.96;109849;1250;70644;-71
2022/08/01 10:07:56;;;;;;;;;;;;;;;20.33;72.36;97072.42;110187;1248;68615;-72
2022/08/01 10:10:28;;;;;;;2.10;1.90;;;;;;;20.41;71.76;97074.52;110195;1248;69328;-72
2022/08/01 10:13:01;;;;;;;2.60;2.40;;;;;;;20.30;71.64;97074.56;110239;1248;58930;-70
2022/08/01 10:15:32;;;;;;;3.20;2.70;;;;;;;20.30;70.99;97069.70;110256;1247;58859;-69
2022/08/01 10:18:09;;;;;;;2.90;2.40;;;;;;;20.29;71.84;97070.27;110167;1247;70684;-71
2022/08/01 10:20:55;;;;;;;2.40;2.20;;;;;;;20.49;71.33;97070.75;110164;1247;69209;-72
2022/08/01 10:23:33;;;;;;;3.30;3.00;;;;;;;20.64;70.89;97070.48;110020;1248;69407;-71
2022/08/01 10:26:13;;;;;;;3.90;2.60;;;;;;;20.20;71.09;97077.85;110130;1251;59390;-71
2022/08/01 10:28:48;;;;;;;3.30;2.60;;;;;;;20.23;71.59;97074.46;110199;1247;58882;-72
2022/08/01 10:31:19;;;;;;;3.00;2.70;;;;;;;20.28;71.67;97070.20;110069;1247;70643;-72
2022/08/01 10:34:00;;;;;;;2.90;2.60;;;;;;;20.39;70.97;97071.20;110223;1247;68818;-71
2022/08/01 10:36:36;;;;;;;2.20;2.00;;;;;;;20.64;71.34;97067.75;110254;1247;69347;-70
2022/08/01 10:39:18;;;;;;;1.80;1.60;;;;;;;20.90;69.39;97067.53;109936;1247;58895;-70
2022/08/01 10:41:54;;;;;;;2.10;1.80;;;;;;;21.27;69.25;97068.23;109919;1251;59325;-72
2022/08/01 10:44:41;;;;;;;2.40;1.50;;;;;;;21.58;67.71;97067.45;109907;1251;70783;-71
2022/08/01 10:47:27;;;;;;;1.80;1.50;;;;;;;21.77;67.52;97066.56;109832;1249;70344;-70
2022/08/01 10:50:44;;;;;;;2.20;1.80;;;;;;;21.92;66.17;97063.47;110059;1247;68782;-71
2022/08/01 10:53:28;;;;;;;;;;;;;;;21.88;65.95;97063.89;109711;1251;58892;-71
2022/08/01 10:56:17;;;;;;;2.70;1.60;;;;;;;21.83;65.00;97061.38;109902;1250;58896;-71
2022/08/01 10:59:06;;;;;;;2.00;1.80;;;;;;;21.71;65.43;97057.64;110109;1249;70042;-71
2022/08/01 11:02:04;;;;;;;1.60;1.50;;;;;;;21.91;65.85;97059.79;109974;1251;68612;-70
2022/08/01 11:04:58;;;;;;;1.20;1.10;;;;;;;21.96;64.39;97055.31;110000;1247;69342;-71
2022/08/01 11:07:45;;;;;;;1.30;1.20;;;;;;;21.81;63.95;97051.42;110119;1249;58875;-71
2022/08/01 11:10:47;;;;;;;1.20;1.10;;;;;;;21.46;63.68;97061.02;110496;1248;58888;-72
2022/08/01 11:13:57;;;;;;;1.00;0.90;;;;;;;21.40;64.19;97057.23;109921;1248;71259;-70
2022/08/01 11:16:34;;;;;;;1.10;1.00;;;;;;;21.42;64.27;97056.68;110280;1247;69424;-71
2022/08/01 11:19:08;;;;;;;1.20;1.10;;;;;;;21.41;64.28;97052.58;110540;1247;68968;-68
2022/08/01 11:22:03;;;;;;;1.10;1.00;;;;;;;21.44;63.99;97047.71;110064;1248;58954;-72
2022/08/01 11:24:56;;;;;;;1.10;1.00;;;;;;;21.45;63.71;97045.11;110102;1248;58891;-72
2022/08/01 11:27:31;;;;;;;1.10;1.00;;;;;;;21.48;63.68;97044.60;110096;1248;71839;-70
2022/08/01 11:30:11;;;;;;;1.20;1.10;;;;;;;21.79;63.72;97043.73;109914;1247;69019;-71
2022/08/01 11:32:57;;;;;;;1.60;1.10;;;;;;;22.26;63.47;97041.61;110152;1247;69126;-71
2022/08/01 11:36:12;;;;;;;1.30;1.20;;;;;;;22.90;62.41;97037.74;110095;1247;58954;-70
2022/08/01 11:39:07;;;;;;;2.10;1.30;;;;;;;23.26;60.02;97039.20;110228;1247;59474;-71
2022/08/01 11:41:47;;;;;;;1.30;1.20;;;;;;;23.70;59.91;97038.25;110208;1247;70533;-70
2022/08/01 11:44:27;;;;;;;1.70;1.30;;;;;;;24.03;59.28;97036.53;110228;1247;67650;-71
2022/08/01 11:47:11;;;;;;;1.50;1.40;;;;;;;24.08;57.07;97036.52;109882;1247;68858;-72
2022/08/01 11:49:44;;;;;;;1.20;1.00;;;;;;;24.30;57.34;97031.30;109841;1251;58869;-72
2022/08/01 11:52:30;;;;;;;1.10;1.00;;;;;;;24.29;53.93;97034.46;110104;1247;58928;-71
2022/08/01 11:55:10;;;;;;;5.00;1.20;;;;;;;24.83;54.19;97028.20;110223;1247;68947;-69
2022/08/01 11:57:44;;;;;;;3.00;1.20;;;;;;;25.06;53.09;97031.21;110144;1247;69944;-70
2022/08/01 12:00:19;;;;;;;1.50;1.40;;;;;;;25.55;52.89;97029.58;110174;1248;68654;-72
2022/08/01 12:03:02;;;;;;;1.30;1.20;;;;;;;26.11;50.76;97031.08;110164;1248;58886;-71
2022/08/01 12:05:39;;;;;;;1.60;1.40;;;;;;;26.63;48.90;97030.23;110182;1247;58886;-70
2022/08/01 12:08:11;;;;;;;1.70;1.60;;;;;;;26.97;48.59;97034.02;110209;1247;70762;-70